Time;durP1;ratioP1;P1;durP2;ratioP2;P2;SDS_P1;SDS_P2;PMS_P1;PMS_P2;Temp;Humidity;BMP_temperature;BMP_pressure;BME280_temperature;BME280_humidity;BME280_pressure;Samples;Min_cycle;Max_cycle;Signal;HPM_P1;HPM_P2
2023/03/24 00:06:12;;;;;;;1.83;1.27;;;13.10;99.90;;;;;;6165181;23;20413;-79
2023/03/24 00:08:40;;;;;;;2.30;1.60;;;13.10;99.90;;;;;;6105059;23;20436;-78
2023/03/24 00:11:10;;;;;;;2.87;1.37;;;13.10;99.90;;;;;;6132311;23;20392;-79
2023/03/24 00:13:37;;;;;;;1.77;1.30;;;13.10;99.90;;;;;;6108540;23;20367;-79
2023/03/24 00:16:08;;;;;;;1.33;1.13;;;13.10;99.90;;;;;;6112744;23;20356;-80
2023/03/24 00:18:35;;;;;;;2.73;1.63;;;13.10;99.90;;;;;;6086322;23;20405;-81
2023/03/24 00:21:03;;;;;;;1.53;1.10;;;13.00;99.90;;;;;;6134955;23;20407;-77
2023/03/24 00:23:32;;;;;;;1.67;1.47;;;13.00;99.90;;;;;;6085429;23;20383;-80
2023/03/24 00:26:07;;;;;;;2.60;1.47;;;13.00;99.90;;;;;;6133365;23;20383;-78
2023/03/24 00:28:35;;;;;;;2.47;1.30;;;13.10;99.90;;;;;;6107682;23;20454;-80
2023/03/24 00:31:02;;;;;;;2.37;1.50;;;13.00;99.90;;;;;;6142552;23;20368;-77
2023/03/24 00:33:34;;;;;;;1.50;1.20;;;13.00;99.90;;;;;;6138279;23;20387;-78
2023/03/24 00:36:01;;;;;;;1.63;1.33;;;13.00;99.90;;;;;;6089258;23;20382;-79
2023/03/24 00:38:27;;;;;;;2.13;1.23;;;13.10;99.90;;;;;;6132193;23;20634;-79
2023/03/24 00:40:54;;;;;;;1.90;1.30;;;13.00;99.90;;;;;;6086280;23;20423;-80
2023/03/24 00:43:20;;;;;;;1.57;0.93;;;13.00;99.90;;;;;;6085063;23;20386;-78
2023/03/24 00:45:46;;;;;;;1.80;1.17;;;13.10;99.90;;;;;;6086857;23;20615;-79
2023/03/24 00:48:19;;;;;;;1.77;1.10;;;13.00;99.90;;;;;;6136665;23;20524;-77
2023/03/24 00:50:47;;;;;;;2.80;1.57;;;13.00;99.90;;;;;;6133885;23;20376;-78
2023/03/24 00:53:15;;;;;;;2.63;1.40;;;13.00;99.90;;;;;;6106993;23;20359;-78
2023/03/24 00:55:48;;;;;;;3.03;2.20;;;13.10;99.90;;;;;;6131204;23;20367;-77
2023/03/24 00:58:22;;;;;;;1.93;1.30;;;13.10;99.90;;;;;;6107260;23;20409;-80
2023/03/24 01:00:50;;;;;;;2.33;1.77;;;13.10;99.90;;;;;;6109406;23;20364;-79
2023/03/24 01:03:18;;;;;;;2.73;1.47;;;13.10;99.90;;;;;;6133335;23;20365;-79
2023/03/24 01:05:47;;;;;;;1.80;1.30;;;13.00;99.90;;;;;;6082363;23;20553;-79
2023/03/24 01:08:19;;;;;;;2.97;1.47;;;13.00;99.90;;;;;;6130973;23;20396;-79
2023/03/24 01:10:51;;;;;;;1.90;1.40;;;13.00;99.90;;;;;;6132784;23;20390;-78
2023/03/24 01:13:22;;;;;;;1.97;1.40;;;13.00;99.90;;;;;;6130738;23;20371;-77
2023/03/24 01:15:49;;;;;;;2.57;1.70;;;13.00;99.90;;;;;;6133090;23;20560;-79
2023/03/24 01:18:15;;;;;;;2.07;1.87;;;13.00;99.90;;;;;;6107222;23;20450;-78
2023/03/24 01:20:47;;;;;;;4.00;2.00;;;13.00;99.90;;;;;;6131934;23;20375;-78
2023/03/24 01:23:18;;;;;;;2.00;1.67;;;13.00;99.90;;;;;;6138682;23;20396;-80
2023/03/24 01:25:47;;;;;;;3.67;2.00;;;13.10;99.90;;;;;;6082872;23;20387;-79
2023/03/24 01:28:14;;;;;;;3.23;1.90;;;13.10;99.90;;;;;;6105931;23;20406;-79
2023/03/24 01:30:40;;;;;;;3.10;1.90;;;13.10;99.90;;;;;;6083251;23;20386;-79
2023/03/24 01:33:06;;;;;;;3.13;1.67;;;13.10;99.90;;;;;;6133222;23;20678;-77
2023/03/24 01:35:32;;;;;;;1.93;1.30;;;13.10;99.90;;;;;;6082472;23;20160;-77
2023/03/24 01:37:58;;;;;;;2.10;1.53;;;13.10;99.90;;;;;;6082574;23;20692;-78
2023/03/24 01:40:30;;;;;;;3.70;1.40;;;13.10;99.90;;;;;;6081915;23;20463;-77
2023/03/24 01:42:57;;;;;;;2.97;1.60;;;13.20;99.90;;;;;;6131004;23;20219;-78
2023/03/24 01:45:40;;;;;;;3.20;1.60;;;13.20;99.90;;;;;;6132718;23;20441;-78
2023/03/24 01:48:39;;;;;;;2.10;1.57;;;13.20;99.90;;;;;;6098079;23;20399;-78
2023/03/24 01:51:17;;;;;;;2.10;1.83;;;13.20;99.90;;;;;;6091824;23;20649;-77
2023/03/24 01:53:50;;;;;;;3.13;1.70;;;13.20;99.90;;;;;;6107674;23;20455;-78
2023/03/24 01:56:16;;;;;;;2.63;1.70;;;13.20;99.90;;;;;;6130724;23;20819;-79
2023/03/24 01:58:49;;;;;;;3.20;1.63;;;13.20;99.90;;;;;;6131130;23;20821;-78
2023/03/24 02:01:20;;;;;;;3.20;2.13;;;13.20;99.90;;;;;;6085443;23;20378;-79
2023/03/24 02:04:15;;;;;;;3.60;1.90;;;13.30;99.90;;;;;;6109955;23;20729;-79
2023/03/24 02:06:44;;;;;;;4.33;1.73;;;13.20;99.90;;;;;;6086845;23;20392;-77
2023/03/24 02:09:13;;;;;;;3.20;1.90;;;13.20;99.90;;;;;;6086016;23;20697;-79
2023/03/24 02:11:40;;;;;;;2.90;2.07;;;13.20;99.90;;;;;;6135067;23;20352;-78
2023/03/24 02:14:07;;;;;;;4.20;2.70;;;13.20;99.90;;;;;;6085889;23;20379;-77
2023/03/24 02:16:59;;;;;;;2.70;1.90;;;13.20;99.90;;;;;;6085027;23;20386;-78
2023/03/24 02:19:52;;;;;;;3.50;3.03;;;13.20;99.90;;;;;;6095865;23;20446;-77
2023/03/24 02:22:37;;;;;;;3.50;2.03;;;13.30;99.90;;;;;;6090925;23;20383;-80
2023/03/24 02:25:40;;;;;;;4.03;2.53;;;13.30;99.90;;;;;;6109768;23;20384;-80
2023/03/24 02:28:36;;;;;;;5.10;2.10;;;13.30;99.90;;;;;;6084583;23;20845;-79
2023/03/24 02:31:17;;;;;;;3.60;2.10;;;13.30;99.90;;;;;;6085853;23;20423;-77
2023/03/24 02:34:11;;;;;;;2.60;2.33;;;13.40;99.90;;;;;;6133375;23;20658;-78
2023/03/24 02:37:17;;;;;;;4.40;2.50;;;13.40;99.90;;;;;;6132782;23;20650;-78
2023/03/24 02:39:50;;;;;;;1.87;1.67;;;13.40;99.90;;;;;;6132825;23;20397;-79
2023/03/24 02:42:42;;;;;;;2.77;2.20;;;13.40;99.90;;;;;;6108590;23;20387;-77
2023/03/24 02:45:35;;;;;;;3.57;2.60;;;13.40;99.90;;;;;;6084866;23;20455;-79
2023/03/24 02:48:14;;;;;;;3.47;2.27;;;13.30;99.90;;;;;;6134658;23;20402;-79
2023/03/24 02:50:52;;;;;;;4.07;2.57;;;13.40;99.90;;;;;;6085990;23;20379;-78
2023/03/24 02:53:31;;;;;;;2.83;2.17;;;13.30;99.90;;;;;;6084408;23;20370;-79
2023/03/24 02:56:43;;;;;;;3.17;2.87;;;13.30;99.90;;;;;;6135321;23;20373;-79
2023/03/24 02:59:36;;;;;;;3.13;2.30;;;13.30;99.90;;;;;;6086818;23;20399;-79
2023/03/24 03:02:11;;;;;;;2.67;2.43;;;13.40;99.90;;;;;;6085201;23;20477;-78
2023/03/24 03:04:48;;;;;;;3.40;1.97;;;13.40;99.90;;;;;;6109262;23;20436;-79
2023/03/24 03:07:21;;;;;;;3.10;2.40;;;13.40;99.90;;;;;;6085400;23;20378;-78
2023/03/24 03:10:01;;;;;;;3.30;2.90;;;13.40;99.90;;;;;;6134289;23;20810;-76
2023/03/24 03:12:31;;;;;;;4.70;3.30;;;13.40;99.90;;;;;;6132235;23;20383;-78
2023/03/24 03:15:11;;;;;;;3.73;2.40;;;13.40;99.90;;;;;;6108586;23;20378;-79
2023/03/24 03:17:51;;;;;;;3.20;2.60;;;13.50;99.90;;;;;;6133664;23;20371;-78
2023/03/24 03:20:21;;;;;;;3.17;2.87;;;13.50;99.90;;;;;;6084721;23;20409;-77
2023/03/24 03:23:01;;;;;;;3.20;2.43;;;13.60;99.90;;;;;;6133641;23;20419;-78
2023/03/24 03:25:32;;;;;;;2.50;2.10;;;13.60;99.90;;;;;;6133776;23;20407;-78
2023/03/24 03:28:02;;;;;;;3.50;2.50;;;13.60;99.90;;;;;;6133151;23;20377;-78
2023/03/24 03:30:37;;;;;;;3.00;2.67;;;13.50;99.90;;;;;;6132603;23;20429;-78
2023/03/24 03:33:07;;;;;;;3.83;2.10;;;13.40;99.90;;;;;;6134939;23;20367;-79
2023/03/24 03:35:43;;;;;;;3.97;2.40;;;13.40;99.90;;;;;;6132897;23;20598;-78
2023/03/24 03:38:23;;;;;;;4.13;2.53;;;13.30;99.90;;;;;;6084016;23;20432;-79
2023/03/24 03:40:58;;;;;;;2.50;2.20;;;13.30;99.90;;;;;;6083497;23;20398;-80
2023/03/24 03:43:30;;;;;;;2.90;2.30;;;13.30;99.90;;;;;;6132983;23;20685;-78
2023/03/24 03:45:56;;;;;;;3.50;2.30;;;13.30;99.90;;;;;;6134430;23;20368;-80
2023/03/24 03:48:30;;;;;;;2.27;2.00;;;13.40;99.90;;;;;;6116647;23;20433;-77
2023/03/24 03:50:58;;;;;;;3.23;2.40;;;13.40;99.90;;;;;;6130859;23;20364;-76
2023/03/24 03:56:09;;;;;;;2.53;2.33;;;13.50;99.90;;;;;;6194090;23;20397;-78
2023/03/24 03:58:45;;;;;;;5.20;4.17;;;13.50;99.90;;;;;;6166783;23;20420;-78
2023/03/24 04:01:14;;;;;;;3.20;2.30;;;13.50;99.90;;;;;;6167397;23;20376;-78
2023/03/24 04:04:28;;;;;;;4.37;2.80;;;13.50;99.90;;;;;;6147560;23;20685;-77
2023/03/24 04:08:02;;;;;;;4.20;2.30;;;13.50;99.90;;;;;;6147199;23;20485;-79
2023/03/24 04:11:02;;;;;;;3.17;2.87;;;13.60;99.90;;;;;;6166513;23;20515;-80
2023/03/24 04:13:54;;;;;;;3.10;2.20;;;13.60;99.90;;;;;;6142878;23;20412;-79
2023/03/24 04:17:00;;;;;;;3.83;2.47;;;13.60;99.90;;;;;;6167889;23;20370;-78
2023/03/24 04:19:50;;;;;;;3.97;2.50;;;13.60;99.90;;;;;;6165426;23;20398;-77
2023/03/24 04:22:31;;;;;;;3.23;2.70;;;13.60;99.90;;;;;;6144390;23;20370;-78
2023/03/24 04:25:34;;;;;;;2.77;2.53;;;13.70;99.90;;;;;;6150955;23;20402;-78
2023/03/24 04:28:25;;;;;;;2.60;2.40;;;13.60;99.90;;;;;;6165946;23;20406;-79
2023/03/24 04:31:17;;;;;;;3.20;2.07;;;13.70;99.90;;;;;;6166323;23;20385;-81
2023/03/24 04:34:15;;;;;;;3.10;2.70;;;13.70;99.90;;;;;;6166444;23;20381;-78
2023/03/24 04:37:01;;;;;;;3.37;2.23;;;13.80;99.90;;;;;;6166754;23;20377;-79
2023/03/24 04:39:52;;;;;;;5.53;2.70;;;13.80;99.90;;;;;;6150298;23;20402;-77
2023/03/24 04:42:24;;;;;;;2.87;2.27;;;13.90;99.90;;;;;;6168203;23;20446;-78
2023/03/24 04:44:50;;;;;;;2.00;1.67;;;13.90;99.90;;;;;;6165241;23;20385;-77
2023/03/24 04:47:47;;;;;;;3.00;1.80;;;13.80;99.90;;;;;;6192068;23;20421;-79
2023/03/24 04:50:29;;;;;;;4.03;1.77;;;13.70;99.90;;;;;;6144067;23;20450;-78
2023/03/24 04:52:56;;;;;;;3.20;2.50;;;13.60;99.90;;;;;;6166932;23;20371;-78
2023/03/24 04:55:36;;;;;;;2.70;1.77;;;13.50;99.90;;;;;;6167831;23;20452;-77
2023/03/24 04:58:02;;;;;;;3.97;1.70;;;13.40;99.90;;;;;;6168382;23;20481;-78
2023/03/24 05:00:30;;;;;;;3.63;1.67;;;13.10;99.90;;;;;;6146363;23;20389;-77
2023/03/24 05:02:59;;;;;;;4.03;1.57;;;12.70;99.90;;;;;;6158755;23;20371;-78
2023/03/24 05:05:33;;;;;;;3.10;1.30;;;12.50;99.90;;;;;;6134677;23;20407;-77
2023/03/24 05:14:08;;;;;;;2.93;1.83;;;11.80;99.90;;;;;;6183032;23;20426;-78
2023/03/24 05:20:15;;;;;;;2.13;1.60;;;11.50;99.90;;;;;;6185496;23;20445;-78
2023/03/24 05:26:22;;;;;;;1.87;1.33;;;11.20;99.90;;;;;;6182099;23;20482;-79
2023/03/24 05:29:09;;;;;;;2.40;1.47;;;11.10;99.90;;;;;;6160238;23;20433;-77
2023/03/24 05:34:55;;;;;;;2.10;1.70;;;10.90;99.90;;;;;;6181741;23;20430;-79
2023/03/24 08:20:53;;;;;;;11.13;3.40;;;12.40;96.00;;;;;;6141541;22;2257279;-78
2023/03/24 08:23:33;;;;;;;9.07;3.37;;;13.20;92.40;;;;;;6180288;23;20156;-79
2023/03/24 08:26:01;;;;;;;9.50;3.73;;;13.20;91.80;;;;;;6161480;23;20386;-77
2023/03/24 08:28:28;;;;;;;8.17;3.60;;;13.00;92.00;;;;;;6162732;23;20426;-77
2023/03/24 08:30:55;;;;;;;5.00;2.90;;;13.10;90.70;;;;;;6135786;23;20382;-78
2023/03/24 08:33:49;;;;;;;8.00;4.00;;;13.10;90.30;;;;;;6185298;23;20379;-79
2023/03/24 08:36:15;;;;;;;11.83;3.97;;;13.10;90.00;;;;;;6136515;23;20380;-77
2023/03/24 08:38:46;;;;;;;11.70;4.17;;;13.20;85.70;;;;;;6161586;23;20234;-76
2023/03/24 08:41:14;;;;;;;11.10;5.00;;;13.50;85.70;;;;;;6160676;23;20381;-79
2023/03/24 08:43:40;;;;;;;5.50;3.40;;;13.50;83.60;;;;;;6163596;23;20428;-78
2023/03/24 08:46:08;;;;;;;5.87;2.63;;;13.40;80.30;;;;;;6163607;23;20394;-77
2023/03/24 08:48:38;;;;;;;7.53;3.20;;;13.30;83.40;;;;;;6140365;23;20492;-78
2023/03/24 08:51:12;;;;;;;5.80;3.20;;;13.30;83.70;;;;;;6164726;23;20453;-78
2023/03/24 08:53:40;;;;;;;6.20;2.27;;;13.30;82.50;;;;;;6195675;23;20373;-76
2023/03/24 08:56:06;;;;;;;9.23;3.00;;;13.50;82.40;;;;;;6169904;23;20449;-78
2023/03/24 08:58:33;;;;;;;13.27;3.20;;;13.70;76.80;;;;;;6168219;23;20381;-79
2023/03/24 09:04:23;;;;;;;13.97;3.10;;;13.90;74.50;;;;;;6069857;23;20397;-77
2023/03/24 09:07:37;;;;;;;4.27;1.97;;;14.00;72.60;;;;;;6026060;23;20385;-79
2023/03/24 09:43:14;;;;;;;15.83;3.67;;;13.80;67.60;;;;;;6184960;23;20517;-75
2023/03/24 09:45:49;;;;;;;7.03;2.70;;;13.70;66.70;;;;;;6130643;23;20407;-76
2023/03/24 09:48:24;;;;;;;7.70;2.30;;;13.70;66.00;;;;;;6129232;23;20381;-75
2023/03/24 09:50:58;;;;;;;5.37;2.20;;;13.70;66.70;;;;;;6128514;23;20417;-75
2023/03/24 12:38:22;;;;;;;11.07;2.20;;;18.00;44.90;;;;;;6048412;23;20453;-78
2023/03/24 12:41:13;;;;;;;7.10;2.60;;;17.90;45.40;;;;;;5867869;23;20417;-78
2023/03/24 12:47:14;;;;;;;7.37;2.03;;;18.00;44.30;;;;;;6116998;23;20465;-77
2023/03/24 12:50:04;;;;;;;6.83;1.97;;;18.10;44.60;;;;;;6072366;23;20427;-77
2023/03/24 12:52:56;;;;;;;3.73;1.80;;;18.40;43.90;;;;;;6097471;23;20422;-77
2023/03/24 12:55:29;;;;;;;5.00;1.90;;;18.30;43.20;;;;;;6001049;23;163642;-77
2023/03/24 12:58:27;;;;;;;5.57;1.60;;;18.40;43.10;;;;;;6095764;23;20440;-79
2023/03/24 13:01:30;;;;;;;6.37;2.00;;;18.50;42.50;;;;;;6073445;23;20383;-77
2023/03/24 13:04:24;;;;;;;5.47;2.50;;;18.30;42.60;;;;;;5688969;23;7399228;-78
2023/03/24 13:07:11;;;;;;;6.67;2.67;;;18.50;42.70;;;;;;6015449;23;197633;-79
2023/03/24 13:10:14;;;;;;;3.77;1.20;;;18.50;42.90;;;;;;6039551;23;20377;-77
2023/03/24 13:16:21;;;;;;;6.97;2.27;;;18.30;43.10;;;;;;6181762;23;20406;-77
2023/03/24 13:18:53;;;;;;;4.37;1.77;;;18.10;42.90;;;;;;6154619;23;20387;-78
2023/03/24 13:21:37;;;;;;;;;;;;;;;;;;;;;
2023/03/24 13:27:27;;;;;;;5.93;2.33;;;17.80;43.60;;;;;;6141255;23;20458;-78
2023/03/24 13:30:27;;;;;;;5.83;2.33;;;17.70;43.80;;;;;;6077939;23;20399;-77
2023/03/24 13:33:07;;;;;;;4.00;1.87;;;17.60;43.50;;;;;;6095490;23;20423;-77
2023/03/24 13:36:04;;;;;;;7.97;2.63;;;17.70;44.10;;;;;;6124998;23;20423;-77
2023/03/24 13:38:47;;;;;;;3.80;1.70;;;17.80;44.00;;;;;;6123809;23;20371;-79
2023/03/24 13:41:30;;;;;;;4.97;2.07;;;18.10;42.90;;;;;;6096667;23;20458;-78
2023/03/24 13:44:01;;;;;;;3.50;2.10;;;18.00;42.50;;;;;;6122751;23;20401;-76
2023/03/24 13:46:39;;;;;;;5.60;2.47;;;17.80;43.20;;;;;;6067513;23;20421;-80
2023/03/24 14:02:18;;;;;;;5.20;1.67;;;17.80;44.00;;;;;;6121772;23;20457;-79
2023/03/24 14:04:52;;;;;;;4.50;1.50;;;17.70;43.70;;;;;;6108605;23;20386;-78
2023/03/24 14:10:15;;;;;;;11.93;5.20;;;17.50;45.10;;;;;;6074723;23;20493;-78
2023/03/24 14:16:41;;;;;;;7.67;2.60;;;17.00;46.10;;;;;;6068299;23;20441;-73
2023/03/24 14:19:22;;;;;;;3.03;1.20;;;16.70;47.40;;;;;;6024701;23;20430;-74
2023/03/24 14:22:13;;;;;;;4.03;1.50;;;16.80;47.00;;;;;;6124969;23;20431;-73
2023/03/24 14:24:42;;;;;;;3.53;1.67;;;16.90;46.70;;;;;;6041202;23;20716;-75
2023/03/24 14:27:31;;;;;;;3.60;1.50;;;16.70;46.10;;;;;;6041138;23;20422;-74
2023/03/24 14:30:29;;;;;;;5.67;1.97;;;16.60;47.00;;;;;;6092498;23;20682;-75
2023/03/24 14:32:59;;;;;;;4.30;1.83;;;16.50;47.50;;;;;;5965559;23;20437;-72
2023/03/24 14:35:45;;;;;;;4.60;2.40;;;16.50;48.00;;;;;;6085629;23;20387;-73
2023/03/24 14:38:21;;;;;;;13.57;2.70;;;16.30;49.10;;;;;;5979136;24;20419;-73
2023/03/24 14:40:58;;;;;;;2.43;1.90;;;16.00;49.90;;;;;;5955701;24;20381;-74
2023/03/24 14:43:48;;;;;;;8.53;3.00;;;16.10;50.40;;;;;;5954922;24;20411;-74
2023/03/24 14:46:21;;;;;;;3.60;1.60;;;16.10;50.90;;;;;;6001654;24;20473;-74
2023/03/24 14:49:10;;;;;;;7.23;1.50;;;16.10;50.80;;;;;;5956405;24;20388;-73
2023/03/24 14:51:49;;;;;;;6.40;1.80;;;16.10;51.00;;;;;;5956416;24;20441;-74
2023/03/24 14:54:22;;;;;;;4.27;1.87;;;15.90;51.30;;;;;;5977612;24;20450;-73
2023/03/24 14:56:52;;;;;;;3.07;1.87;;;15.70;53.30;;;;;;6003459;23;20395;-74
2023/03/24 14:59:34;;;;;;;3.67;1.40;;;15.70;54.20;;;;;;5981930;24;20460;-74
2023/03/24 15:02:34;;;;;;;3.93;1.83;;;15.70;54.60;;;;;;6001269;24;20400;-74
2023/03/24 15:05:21;;;;;;;5.70;1.70;;;15.70;53.80;;;;;;5919436;24;20394;-74
2023/03/24 15:08:09;;;;;;;2.80;1.20;;;15.50;53.90;;;;;;5928443;24;20371;-74
2023/03/24 15:10:46;;;;;;;9.70;2.20;;;15.30;54.20;;;;;;5930129;24;20411;-73
2023/03/24 15:13:44;;;;;;;3.73;1.47;;;15.20;54.30;;;;;;5917512;24;20401;-72
2023/03/24 15:16:11;;;;;;;6.23;1.53;;;15.30;54.70;;;;;;5973848;24;20435;-73
2023/03/24 15:19:11;;;;;;;2.80;1.10;;;15.40;54.40;;;;;;5979961;24;20436;-74
2023/03/24 15:21:55;;;;;;;2.90;1.20;;;15.50;54.40;;;;;;5978955;24;20411;-73
2023/03/24 15:24:28;;;;;;;3.60;1.50;;;15.50;54.40;;;;;;5979332;24;20456;-72
2023/03/24 15:27:19;;;;;;;5.37;1.43;;;15.50;54.60;;;;;;6004320;24;20394;-73
2023/03/24 15:29:53;;;;;;;4.90;1.80;;;15.50;54.70;;;;;;6002610;23;20396;-73
2023/03/24 15:32:26;;;;;;;4.33;1.97;;;15.50;54.10;;;;;;5978719;24;20481;-72
2023/03/24 15:34:58;;;;;;;3.07;1.87;;;15.70;53.20;;;;;;5978754;24;20783;-72
2023/03/24 15:37:41;;;;;;;4.73;1.43;;;15.80;53.50;;;;;;6012006;24;20378;-73
2023/03/24 15:40:29;;;;;;;5.27;1.57;;;15.90;53.30;;;;;;6004019;24;20389;-73
2023/03/24 15:43:06;;;;;;;3.83;2.27;;;16.00;53.10;;;;;;6070655;23;20405;-72
2023/03/24 15:45:36;;;;;;;3.00;1.20;;;16.00;53.30;;;;;;6094781;23;20404;-73
2023/03/24 15:48:18;;;;;;;4.07;2.20;;;15.90;53.70;;;;;;6120448;23;20369;-72
2023/03/24 15:51:10;;;;;;;2.97;1.10;;;15.90;53.70;;;;;;6073217;23;20421;-73
2023/03/24 15:53:55;;;;;;;3.90;1.50;;;15.90;53.90;;;;;;6117143;23;20423;-71
2023/03/24 15:56:26;;;;;;;3.43;1.60;;;15.80;54.10;;;;;;6117537;23;20468;-72
2023/03/24 15:59:14;;;;;;;2.90;1.50;;;15.80;54.50;;;;;;6115103;23;20393;-73
2023/03/24 16:01:42;;;;;;;2.87;1.70;;;15.80;54.80;;;;;;6118077;23;20445;-71
2023/03/24 16:04:17;;;;;;;4.03;1.40;;;15.60;55.30;;;;;;6121339;23;20367;-73
2023/03/24 16:06:52;;;;;;;3.50;1.40;;;15.50;55.90;;;;;;6125766;23;20387;-71
2023/03/24 16:09:26;;;;;;;2.50;1.40;;;15.40;56.40;;;;;;6120745;23;20376;-72
2023/03/24 16:11:52;;;;;;;3.23;1.80;;;15.30;56.90;;;;;;6153255;23;20430;-73
2023/03/24 16:14:41;;;;;;;5.20;1.63;;;15.20;57.70;;;;;;6130608;23;20415;-72
2023/03/24 16:17:08;;;;;;;4.37;1.60;;;15.10;59.90;;;;;;6100233;23;20915;-73
2023/03/24 16:19:34;;;;;;;4.03;1.33;;;14.80;65.10;;;;;;6090903;23;20381;-71
2023/03/24 16:22:01;;;;;;;5.60;2.40;;;14.70;68.00;;;;;;6088240;23;20428;-72
2023/03/24 16:24:28;;;;;;;3.40;1.77;;;14.60;72.50;;;;;;6123918;23;20872;-72
2023/03/24 16:26:54;;;;;;;5.73;2.30;;;14.60;74.10;;;;;;6090922;23;20404;-71
2023/03/24 16:29:22;;;;;;;7.90;1.93;;;14.60;75.80;;;;;;6067060;23;20204;-72
2023/03/24 16:31:50;;;;;;;3.93;1.50;;;14.40;73.50;;;;;;6088694;23;20427;-72
2023/03/24 16:34:20;;;;;;;3.20;1.63;;;14.20;72.10;;;;;;6122882;23;20455;-72
2023/03/24 16:36:47;;;;;;;5.57;1.37;;;14.00;72.40;;;;;;6124172;23;20392;-72
2023/03/24 16:39:22;;;;;;;3.73;1.63;;;13.80;71.20;;;;;;6125410;23;20375;-72
2023/03/24 16:41:48;;;;;;;2.80;1.60;;;13.70;74.50;;;;;;6066910;23;20520;-71
2023/03/24 16:44:16;;;;;;;3.20;1.70;;;13.50;76.70;;;;;;6069693;23;20387;-73
2023/03/24 16:46:52;;;;;;;3.97;1.33;;;13.20;78.70;;;;;;6127700;23;20200;-72
2023/03/24 16:49:19;;;;;;;2.83;1.50;;;13.00;80.20;;;;;;6074073;23;20476;-72
2023/03/24 16:51:47;;;;;;;3.10;1.40;;;12.90;81.50;;;;;;6068737;23;20467;-72
2023/03/24 16:54:13;;;;;;;2.03;0.87;;;12.80;82.40;;;;;;6119414;23;20466;-72
2023/03/24 16:56:39;;;;;;;2.77;1.17;;;12.70;86.80;;;;;;6126663;23;20467;-71
2023/03/24 16:59:05;;;;;;;4.83;1.30;;;12.50;89.10;;;;;;6130408;23;20196;-70
2023/03/24 17:01:33;;;;;;;2.80;1.10;;;12.40;90.90;;;;;;6146999;23;20406;-71
2023/03/24 17:04:11;;;;;;;1.10;0.70;;;12.20;91.60;;;;;;6147011;23;20427;-71
2023/03/24 17:06:39;;;;;;;2.80;1.27;;;12.00;92.00;;;;;;6146694;23;20406;-72
2023/03/24 17:09:07;;;;;;;1.97;0.90;;;12.00;92.40;;;;;;6097026;23;20829;-72
2023/03/24 17:11:38;;;;;;;2.63;0.93;;;11.90;95.00;;;;;;6154590;23;20426;-73
2023/03/24 17:14:07;;;;;;;3.07;0.90;;;11.90;97.20;;;;;;6153188;23;20372;-71
2023/03/24 17:16:35;;;;;;;2.60;1.00;;;11.70;99.00;;;;;;6146709;23;20412;-71
2023/03/24 17:19:02;;;;;;;5.00;1.93;;;11.50;99.90;;;;;;6062454;23;20385;-72
2023/03/24 17:21:29;;;;;;;1.93;1.27;;;11.20;99.90;;;;;;6059837;23;20409;-71
2023/03/24 17:23:56;;;;;;;4.17;1.27;;;10.90;99.90;;;;;;6092196;23;20400;-71
2023/03/24 17:26:24;;;;;;;2.47;1.90;;;10.70;99.90;;;;;;6083191;23;20484;-71
2023/03/24 17:28:49;;;;;;;5.10;2.00;;;10.50;99.90;;;;;;6070095;23;20389;-72
2023/03/24 17:31:15;;;;;;;3.17;1.60;;;10.40;99.90;;;;;;6039842;23;20416;-71
2023/03/24 17:33:42;;;;;;;1.50;1.00;;;10.30;99.90;;;;;;6085581;23;20149;-70
2023/03/24 17:36:14;;;;;;;2.37;1.23;;;10.10;99.90;;;;;;6093403;23;20365;-70
2023/03/24 17:38:40;;;;;;;3.33;1.83;;;10.10;99.90;;;;;;6071302;23;20405;-71
2023/03/24 17:41:06;;;;;;;2.73;1.50;;;10.00;99.90;;;;;;6058069;23;20385;-70
2023/03/24 17:43:31;;;;;;;3.93;1.43;;;9.90;99.90;;;;;;6096861;23;20385;-71
2023/03/24 17:45:59;;;;;;;2.60;1.30;;;9.90;99.90;;;;;;6087811;23;20237;-71
2023/03/24 17:48:25;;;;;;;5.73;2.07;;;9.80;99.90;;;;;;6038165;23;20389;-71
2023/03/24 17:50:55;;;;;;;2.23;1.63;;;9.80;99.90;;;;;;6089204;23;20420;-71
2023/03/24 17:53:24;;;;;;;3.70;1.70;;;9.70;99.90;;;;;;6106656;23;20351;-70
2023/03/24 17:56:05;;;;;;;3.60;1.73;;;9.70;99.90;;;;;;6128704;23;20360;-71
2023/03/24 17:58:34;;;;;;;2.10;1.40;;;9.60;99.90;;;;;;6130056;23;20460;-71
2023/03/24 18:01:05;;;;;;;6.40;2.40;;;9.60;99.90;;;;;;6132862;23;20423;-74
2023/03/24 18:03:34;;;;;;;3.70;1.80;;;9.70;99.90;;;;;;6097950;23;20388;-71
2023/03/24 18:06:10;;;;;;;4.33;1.60;;;9.70;99.90;;;;;;6097220;23;20388;-71
2023/03/24 18:08:36;;;;;;;4.40;2.17;;;9.80;99.90;;;;;;6128879;23;20387;-72
2023/03/24 18:11:08;;;;;;;3.53;1.60;;;9.70;99.90;;;;;;6103396;23;20408;-71
2023/03/24 18:13:35;;;;;;;3.20;1.70;;;9.70;99.90;;;;;;6095020;23;20691;-71
2023/03/24 18:16:05;;;;;;;5.40;3.20;;;9.70;99.90;;;;;;6098189;23;20489;-71
2023/03/24 18:18:33;;;;;;;6.10;3.40;;;9.60;99.90;;;;;;6125566;23;20387;-72
2023/03/24 18:20:59;;;;;;;5.27;2.93;;;9.70;99.90;;;;;;6124987;23;20372;-71
2023/03/24 18:23:25;;;;;;;6.10;2.70;;;9.60;99.90;;;;;;6160048;23;20371;-71
2023/03/24 18:25:59;;;;;;;6.70;2.87;;;9.60;99.90;;;;;;6100007;23;20383;-72
2023/03/24 18:28:25;;;;;;;2.60;2.03;;;9.50;99.90;;;;;;6103759;23;20230;-71
2023/03/24 18:30:51;;;;;;;10.67;3.47;;;9.50;99.90;;;;;;6150463;23;20444;-72
2023/03/24 18:33:17;;;;;;;3.40;2.43;;;9.50;99.90;;;;;;6124857;23;20375;-70
2023/03/24 18:35:53;;;;;;;3.50;2.07;;;9.60;99.90;;;;;;6147583;23;20847;-71
2023/03/24 18:38:21;;;;;;;3.50;2.63;;;9.60;99.90;;;;;;6126027;23;20144;-71
2023/03/24 18:40:59;;;;;;;4.27;2.27;;;9.80;99.90;;;;;;6159349;23;20784;-72
2023/03/24 18:43:25;;;;;;;3.50;2.03;;;9.90;99.90;;;;;;6131504;23;20482;-71
2023/03/24 18:45:51;;;;;;;2.20;1.50;;;10.00;99.90;;;;;;6123503;23;20400;-71
2023/03/24 18:48:18;;;;;;;4.47;2.13;;;10.10;99.90;;;;;;6158949;23;20155;-71
2023/03/24 18:50:43;;;;;;;4.03;2.40;;;10.30;99.90;;;;;;6156947;23;20411;-71
2023/03/24 18:53:12;;;;;;;4.83;2.43;;;10.40;99.90;;;;;;6155479;23;20402;-72
2023/03/24 18:55:45;;;;;;;3.03;1.57;;;10.50;99.90;;;;;;6123265;23;20489;-71
2023/03/24 18:58:14;;;;;;;4.30;2.23;;;10.60;99.90;;;;;;6099179;23;20360;-71
2023/03/24 19:00:48;;;;;;;3.70;2.23;;;10.60;99.90;;;;;;6156704;23;20380;-71
2023/03/24 19:03:14;;;;;;;5.97;2.40;;;10.70;99.90;;;;;;6121403;23;20355;-71
2023/03/24 19:05:40;;;;;;;6.37;2.90;;;10.70;99.90;;;;;;6143489;23;20855;-72
2023/03/24 19:08:06;;;;;;;3.03;1.70;;;10.70;99.90;;;;;;6151664;23;20148;-72
2023/03/24 19:10:36;;;;;;;5.07;2.63;;;10.70;99.90;;;;;;6154889;23;20414;-71
2023/03/24 19:13:04;;;;;;;3.90;2.37;;;10.70;99.90;;;;;;6120747;23;20492;-72
2023/03/24 19:15:30;;;;;;;5.30;2.50;;;10.70;99.90;;;;;;6133351;23;20407;-71
2023/03/24 19:17:57;;;;;;;5.90;2.63;;;10.70;99.90;;;;;;6094062;23;20911;-72
2023/03/24 19:20:24;;;;;;;5.57;2.30;;;10.70;99.90;;;;;;6119805;23;20380;-70
2023/03/24 19:22:52;;;;;;;2.60;1.77;;;10.70;99.90;;;;;;6155057;23;20680;-72
2023/03/24 19:25:17;;;;;;;4.50;1.60;;;10.70;99.90;;;;;;6121868;23;20375;-73
2023/03/24 19:27:43;;;;;;;3.23;1.50;;;10.70;99.90;;;;;;6123761;23;20387;-71
2023/03/24 19:30:10;;;;;;;4.67;1.80;;;10.70;99.90;;;;;;6154712;23;20147;-71
2023/03/24 19:32:36;;;;;;;3.10;2.10;;;10.60;99.90;;;;;;6143503;23;20396;-71
2023/03/24 19:35:03;;;;;;;4.50;2.33;;;10.60;99.90;;;;;;6122938;23;20481;-71
2023/03/24 19:37:30;;;;;;;4.60;1.80;;;10.60;99.90;;;;;;6132135;23;20375;-72
2023/03/24 19:39:57;;;;;;;2.67;2.10;;;10.60;99.90;;;;;;6154357;23;20379;-71
2023/03/24 19:42:25;;;;;;;3.27;1.90;;;10.60;99.90;;;;;;6145125;23;20400;-72
2023/03/24 19:44:54;;;;;;;4.97;1.60;;;10.60;99.90;;;;;;6146591;23;20659;-71
2023/03/24 19:47:23;;;;;;;6.63;2.93;;;10.60;99.90;;;;;;6156369;23;20392;-71
2023/03/24 19:49:48;;;;;;;3.90;2.83;;;10.60;99.90;;;;;;6146974;23;20372;-72
2023/03/24 19:52:14;;;;;;;5.70;3.40;;;10.70;99.90;;;;;;6128409;23;20434;-71
2023/03/24 19:54:40;;;;;;;5.40;3.00;;;10.70;99.90;;;;;;6155630;23;20148;-71
2023/03/24 19:57:06;;;;;;;4.50;2.50;;;10.70;99.90;;;;;;6117311;23;20792;-71
2023/03/24 19:59:33;;;;;;;5.00;3.10;;;10.80;99.90;;;;;;6123517;23;20155;-71
2023/03/24 20:01:59;;;;;;;5.23;2.53;;;10.80;99.90;;;;;;6124437;23;20496;-71
2023/03/24 20:04:25;;;;;;;4.97;2.70;;;10.80;99.90;;;;;;6124886;23;20448;-72
2023/03/24 20:06:51;;;;;;;3.30;2.40;;;10.90;99.90;;;;;;6100725;23;20368;-73
2023/03/24 20:09:18;;;;;;;4.20;2.10;;;10.90;99.90;;;;;;6089267;23;20380;-71
2023/03/24 20:11:44;;;;;;;3.20;2.17;;;10.90;99.90;;;;;;6123687;23;20428;-71
2023/03/24 20:14:10;;;;;;;6.33;1.37;;;11.00;99.90;;;;;;6095917;23;20389;-71
2023/03/24 20:16:35;;;;;;;3.53;1.67;;;11.00;99.90;;;;;;6088840;23;20503;-72
2023/03/24 20:19:02;;;;;;;5.03;1.20;;;11.00;99.90;;;;;;6122302;23;20155;-73
2023/03/24 20:21:28;;;;;;;2.57;1.43;;;11.00;99.90;;;;;;6089118;23;20172;-72
2023/03/24 20:23:55;;;;;;;4.33;1.00;;;11.10;99.40;;;;;;6088488;23;20856;-70
2023/03/24 20:26:21;;;;;;;2.10;0.90;;;11.10;98.80;;;;;;6121066;23;20430;-71